createdAt,value
2018-06-28T00:00:58.699Z,59.90
2018-06-28T00:03:28.123Z,59.88
2018-06-28T00:05:57.280Z,60.28
2018-06-28T00:08:26.555Z,60.61
2018-06-28T00:10:55.700Z,60.57
2018-06-28T00:13:25.207Z,61.56
2018-06-28T00:15:54.607Z,61.54
2018-06-28T00:18:24.164Z,60.17
2018-06-28T00:20:53.612Z,60.83
2018-06-28T00:23:23.171Z,60.33
2018-06-28T00:25:52.968Z,60.88
2018-06-28T00:28:22.147Z,61.39
2018-06-28T00:30:51.571Z,62.01
2018-06-28T00:33:20.911Z,61.31
2018-06-28T00:35:50.191Z,61.71
2018-06-28T00:38:19.382Z,62.15
2018-06-28T00:40:48.537Z,62.37
2018-06-28T00:43:17.707Z,62.91
2018-06-28T00:45:46.875Z,63.06
2018-06-28T00:48:16.032Z,63.21
2018-06-28T00:50:45.203Z,62.37
2018-06-28T00:53:14.363Z,63.26
2018-06-28T00:55:43.570Z,63.71
2018-06-28T00:58:12.774Z,63.67
2018-06-28T01:00:42.200Z,63.49
2018-06-28T01:03:11.375Z,64.47
2018-06-28T01:05:40.643Z,64.74
2018-06-28T01:08:10.938Z,65.48
2018-06-28T01:10:40.110Z,65.68
2018-06-28T01:13:09.479Z,65.40
2018-06-28T01:15:38.659Z,65.47
2018-06-28T01:18:07.811Z,65.50
2018-06-28T01:20:37.115Z,65.79
2018-06-28T01:23:06.287Z,66.10
2018-06-28T01:25:35.624Z,65.92
2018-06-28T01:28:04.939Z,66.13
2018-06-28T01:30:34.159Z,65.89
2018-06-28T01:33:03.343Z,66.13
2018-06-28T01:35:32.615Z,66.50
2018-06-28T01:38:03.061Z,66.88
2018-06-28T01:40:32.253Z,66.60
2018-06-28T01:43:27.726Z,66.99
2018-06-28T01:45:57.895Z,66.78
2018-06-28T01:48:27.061Z,66.45
2018-06-28T01:50:56.495Z,67.19
2018-06-28T01:53:26.001Z,67.83
2018-06-28T01:55:55.200Z,68.10
2018-06-28T01:58:24.703Z,68.11
2018-06-28T02:00:53.916Z,67.52
2018-06-28T02:03:23.136Z,67.52
2018-06-28T02:05:54.367Z,68.29
2018-06-28T02:08:23.587Z,68.38
2018-06-28T02:10:53.370Z,68.56
2018-06-28T02:13:22.855Z,68.32
2018-06-28T02:15:52.037Z,68.81
2018-06-28T02:18:21.207Z,69.03
2018-06-28T02:20:50.719Z,69.17
2018-06-28T02:23:20.307Z,69.26
2018-06-28T02:25:49.931Z,69.33
2018-06-28T02:28:19.240Z,69.82
2018-06-28T02:30:48.399Z,69.91
2018-06-28T02:33:17.920Z,70.48
2018-06-28T02:35:47.184Z,70.27
2018-06-28T02:38:16.352Z,70.65
2018-06-28T02:40:45.512Z,70.48
2018-06-28T02:43:14.907Z,70.42
2018-06-28T02:45:44.187Z,71.12
2018-06-28T02:48:13.480Z,71.32
2018-06-28T02:50:42.655Z,71.51
2018-06-28T02:53:11.823Z,71.53
2018-06-28T02:55:40.977Z,71.23
2018-06-28T02:58:10.124Z,71.36
2018-06-28T03:00:39.321Z,71.62
2018-06-28T03:03:08.503Z,71.33
2018-06-28T03:05:37.911Z,71.71
2018-06-28T03:08:08.024Z,71.25
2018-06-28T03:10:37.469Z,71.29
2018-06-28T03:13:06.835Z,70.98
2018-06-28T03:15:36.024Z,71.54
2018-06-28T03:18:05.411Z,72.13
2018-06-28T03:20:34.595Z,73.03
2018-06-28T03:23:03.895Z,72.46
2018-06-28T03:25:33.389Z,72.53
2018-06-28T03:28:02.520Z,72.54
2018-06-28T03:30:32.372Z,72.00
2018-06-28T03:33:01.525Z,71.95
2018-06-28T03:35:30.703Z,71.70
2018-06-28T03:38:00.075Z,70.28
2018-06-28T03:40:29.042Z,71.02
2018-06-28T03:42:58.171Z,71.18
2018-06-28T03:45:27.379Z,71.09
2018-06-28T03:47:56.539Z,70.14
2018-06-28T03:50:25.716Z,69.67
2018-06-28T03:52:54.879Z,69.30
2018-06-28T03:55:26.139Z,69.13
2018-06-28T03:57:55.711Z,69.92
2018-06-28T04:00:24.883Z,69.54
2018-06-28T04:02:54.051Z,69.22
2018-06-28T04:05:23.535Z,68.98
2018-06-28T04:07:52.959Z,69.20
2018-06-28T04:10:22.123Z,68.48
2018-06-28T04:12:51.268Z,68.18
2018-06-28T04:15:20.462Z,68.09
2018-06-28T04:17:49.858Z,67.92
2018-06-28T04:20:19.544Z,67.54
2018-06-28T04:22:48.728Z,67.31
2018-06-28T04:25:17.931Z,66.89
2018-06-28T04:27:47.095Z,66.70
2018-06-28T04:30:16.286Z,66.65
2018-06-28T04:32:45.475Z,66.45
2018-06-28T04:35:14.989Z,66.68
2018-06-28T04:37:44.167Z,65.81
2018-06-28T04:40:13.508Z,66.11
2018-06-28T04:42:42.812Z,66.09
2018-06-28T04:45:11.966Z,64.84
2018-06-28T04:47:41.459Z,65.01
2018-06-28T04:50:10.627Z,64.96
2018-06-28T04:52:40.115Z,64.51
2018-06-28T04:55:09.259Z,63.74
2018-06-28T04:57:38.523Z,64.10
2018-06-28T05:00:08.019Z,63.46
2018-06-28T05:02:37.207Z,63.38
2018-06-28T05:05:06.771Z,63.34
2018-06-28T05:07:35.932Z,63.16
2018-06-28T05:10:05.131Z,62.60
2018-06-28T05:12:34.795Z,62.63
2018-06-28T05:15:04.071Z,62.14
2018-06-28T05:17:33.699Z,61.74
2018-06-28T05:20:02.873Z,61.06
2018-06-28T05:22:32.037Z,60.89
2018-06-28T05:25:01.195Z,61.04
2018-06-28T05:27:30.364Z,60.18
2018-06-28T05:29:59.669Z,60.14
2018-06-28T05:32:28.894Z,58.77
2018-06-28T05:34:58.066Z,58.69
2018-06-28T05:37:27.223Z,59.27
2018-06-28T05:41:20.804Z,58.96
2018-06-28T05:43:49.991Z,58.06
2018-06-28T05:46:19.160Z,57.10
2018-06-28T05:48:48.486Z,56.91
2018-06-28T05:51:18.310Z,56.36
2018-06-28T05:53:47.496Z,56.49
2018-06-28T05:56:16.648Z,55.14
2018-06-28T05:58:45.817Z,54.99
2018-06-28T06:01:15.036Z,53.60
2018-06-28T06:03:44.303Z,50.88
2018-06-28T06:06:13.467Z,48.47
2018-06-28T06:08:42.632Z,46.96
2018-06-28T06:11:11.836Z,45.94
2018-06-28T06:13:41.008Z,45.77
2018-06-28T06:16:10.171Z,44.34
2018-06-28T06:18:39.499Z,44.01
2018-06-28T06:21:08.696Z,44.12
2018-06-28T06:23:37.900Z,43.77
2018-06-28T06:26:07.247Z,43.37
2018-06-28T06:28:36.471Z,42.72
2018-06-28T06:31:05.671Z,41.64
2018-06-28T06:33:35.024Z,40.58
2018-06-28T06:36:04.229Z,42.34
2018-06-28T06:38:33.476Z,43.48
2018-06-28T06:41:02.627Z,40.98
2018-06-28T06:43:31.783Z,41.55
2018-06-28T06:46:01.015Z,40.54
2018-06-28T06:48:30.285Z,40.03
2018-06-28T06:50:59.475Z,38.45
2018-06-28T06:53:28.860Z,38.03
2018-06-28T06:55:58.031Z,38.02
2018-06-28T06:58:27.182Z,38.82
2018-06-28T07:00:56.519Z,37.76
2018-06-28T07:03:25.968Z,36.07
2018-06-28T07:05:55.095Z,36.35
2018-06-28T07:08:24.252Z,37.13
2018-06-28T07:10:53.483Z,37.01
2018-06-28T07:13:22.983Z,35.77
2018-06-28T07:15:52.490Z,36.84
2018-06-28T07:18:21.655Z,37.88
2018-06-28T07:20:51.756Z,36.73
2018-06-28T07:23:20.851Z,37.56
2018-06-28T07:25:50.044Z,37.16
2018-06-28T07:28:19.449Z,36.29
2018-06-28T07:30:48.579Z,36.83
2018-06-28T07:33:17.739Z,35.01
2018-06-28T07:35:46.901Z,36.09
2018-06-28T07:38:16.046Z,34.03
2018-06-28T07:40:45.495Z,34.90
2018-06-28T07:43:14.680Z,31.88
2018-06-28T07:45:43.869Z,32.32
2018-06-28T07:48:13.059Z,31.74
2018-06-28T07:50:42.523Z,30.30
2018-06-28T07:53:11.723Z,29.64
2018-06-28T07:55:40.900Z,30.72
2018-06-28T07:58:10.071Z,30.02
2018-06-28T08:00:39.239Z,29.81
2018-06-28T08:03:08.415Z,30.62
2018-06-28T08:05:37.571Z,29.66
2018-06-28T08:08:07.032Z,28.85
2018-06-28T08:10:36.200Z,30.13
2018-06-28T08:13:05.367Z,30.84
2018-06-28T08:15:34.519Z,30.27
2018-06-28T08:18:04.107Z,31.83
2018-06-28T08:20:33.272Z,31.34
2018-06-28T08:23:02.475Z,31.87
2018-06-28T08:25:31.986Z,33.83
2018-06-28T08:28:01.280Z,29.80
2018-06-28T08:30:30.451Z,29.14
2018-06-28T08:33:00.021Z,28.60
2018-06-28T08:35:29.203Z,27.22
2018-06-28T08:37:58.489Z,27.54
2018-06-28T08:40:27.755Z,26.71
2018-06-28T08:42:56.911Z,27.45
2018-06-28T08:45:26.054Z,26.60
2018-06-28T08:47:55.243Z,28.44
2018-06-28T08:50:24.495Z,28.32
2018-06-28T08:52:53.676Z,27.80
2018-06-28T08:55:22.856Z,27.24
2018-06-28T08:57:52.056Z,26.19
2018-06-28T09:00:21.175Z,25.15
2018-06-28T09:02:50.364Z,26.89
2018-06-28T09:05:19.543Z,25.60
2018-06-28T09:07:48.747Z,26.17
2018-06-28T09:10:17.895Z,27.13
2018-06-28T09:12:47.091Z,27.35
2018-06-28T09:15:16.536Z,30.00
2018-06-28T09:17:45.983Z,30.01
2018-06-28T09:20:15.187Z,28.79
2018-06-28T09:22:44.603Z,28.71
2018-06-28T09:25:13.719Z,27.76
2018-06-28T09:27:42.987Z,26.44
2018-06-28T09:30:12.935Z,25.06
2018-06-28T09:32:42.083Z,25.27
2018-06-28T09:35:11.559Z,26.80
2018-06-28T09:37:41.068Z,25.85
2018-06-28T09:40:10.231Z,24.83
2018-06-28T09:42:39.495Z,27.45
2018-06-28T09:45:09.095Z,25.82
2018-06-28T09:47:38.547Z,25.02
2018-06-28T09:50:07.762Z,25.62
2018-06-28T09:52:36.915Z,26.76
2018-06-28T09:55:06.143Z,25.96
2018-06-28T09:57:35.322Z,25.55
2018-06-28T10:00:05.728Z,24.58
2018-06-28T10:02:35.187Z,24.04
2018-06-28T10:05:04.570Z,23.82
2018-06-28T10:07:33.695Z,24.22
2018-06-28T10:10:02.928Z,24.57
2018-06-28T10:12:32.088Z,24.02
2018-06-28T10:15:01.258Z,24.62
2018-06-28T10:17:30.412Z,24.33
2018-06-28T10:19:59.572Z,23.55
2018-06-28T10:22:28.947Z,23.22
2018-06-28T10:24:58.442Z,23.02
2018-06-28T10:27:27.553Z,22.98
2018-06-28T10:29:57.554Z,23.74
2018-06-28T10:32:26.691Z,23.57
2018-06-28T10:34:55.855Z,21.58
2018-06-28T10:37:25.024Z,23.15
2018-06-28T10:39:54.207Z,23.87
2018-06-28T10:42:23.362Z,24.38
2018-06-28T10:44:52.561Z,23.39
2018-06-28T10:47:21.855Z,23.51
2018-06-28T10:49:51.048Z,22.67
2018-06-28T10:52:20.347Z,22.11
2018-06-28T10:54:49.523Z,22.46
2018-06-28T10:57:18.719Z,21.58
2018-06-28T10:59:48.463Z,20.97
2018-06-28T11:02:17.617Z,20.34
2018-06-28T11:04:46.755Z,19.92
2018-06-28T11:07:15.944Z,22.34
2018-06-28T11:09:45.518Z,23.72
2018-06-28T11:12:14.739Z,22.88
2018-06-28T11:14:44.137Z,22.76
2018-06-28T11:17:13.513Z,23.60
2018-06-28T11:19:43.042Z,22.56
2018-06-28T11:22:12.207Z,21.79
2018-06-28T11:24:41.582Z,21.46
2018-06-28T11:27:10.935Z,20.56
2018-06-28T11:29:40.447Z,22.66
2018-06-28T11:32:09.655Z,21.28
2018-06-28T11:34:38.826Z,20.29
2018-06-28T11:37:08.008Z,20.78
2018-06-28T11:39:37.199Z,20.46
2018-06-28T11:42:06.415Z,22.09
2018-06-28T11:44:35.592Z,19.47
2018-06-28T11:47:05.280Z,20.47
2018-06-28T11:49:34.486Z,20.54
2018-06-28T11:52:03.687Z,19.90
2018-06-28T11:54:33.179Z,18.99
2018-06-28T11:57:02.396Z,19.74
2018-06-28T11:59:31.555Z,20.00
2018-06-28T12:02:01.115Z,20.75
2018-06-28T12:04:30.418Z,20.70
2018-06-28T12:06:59.651Z,19.54
2018-06-28T12:09:28.843Z,18.80
2018-06-28T12:11:58.784Z,18.39
2018-06-28T12:14:28.551Z,18.97
2018-06-28T12:16:57.719Z,20.03
2018-06-28T12:19:27.068Z,20.16
2018-06-28T12:21:56.592Z,18.20
2018-06-28T12:24:25.771Z,19.44
2018-06-28T12:26:55.127Z,19.96
2018-06-28T12:29:24.677Z,19.77
2018-06-28T12:31:54.179Z,20.13
2018-06-28T12:34:23.366Z,20.64
2018-06-28T12:36:52.523Z,21.04
2018-06-28T12:39:21.716Z,23.98
2018-06-28T12:41:51.129Z,24.73
2018-06-28T12:44:20.316Z,26.75
2018-06-28T12:48:01.136Z,25.39
2018-06-28T12:50:30.282Z,20.27
2018-06-28T12:53:00.911Z,20.43
2018-06-28T12:56:33.975Z,19.73
2018-06-28T12:59:05.411Z,20.98
2018-06-28T13:01:34.685Z,21.60
2018-06-28T13:04:03.912Z,21.05
2018-06-28T13:06:34.082Z,20.28
2018-06-28T13:09:07.927Z,19.68
2018-06-28T13:11:37.120Z,20.82
2018-06-28T13:14:06.379Z,20.11
2018-06-28T13:16:35.605Z,19.32
2018-06-28T13:19:04.816Z,21.11
2018-06-28T13:21:34.047Z,21.27
2018-06-28T13:24:03.549Z,20.45
2018-06-28T13:26:32.839Z,22.39
2018-06-28T13:29:02.030Z,25.29
2018-06-28T13:31:31.211Z,26.86
2018-06-28T13:34:00.371Z,27.91
2018-06-28T13:36:29.567Z,27.49
2018-06-28T13:38:58.739Z,26.27
2018-06-28T13:41:28.329Z,25.20
2018-06-28T13:43:57.096Z,22.32
2018-06-28T13:46:26.264Z,21.74
2018-06-28T13:48:55.447Z,20.51
2018-06-28T13:51:24.639Z,21.17
2018-06-28T13:53:54.931Z,23.28
2018-06-28T13:56:24.490Z,26.48
2018-06-28T13:58:53.803Z,27.10
2018-06-28T14:01:23.000Z,26.69
2018-06-28T14:03:52.399Z,23.32
2018-06-28T14:06:21.592Z,23.68
2018-06-28T14:08:50.791Z,25.19
2018-06-28T14:11:19.979Z,24.99
2018-06-28T14:13:49.155Z,23.70
2018-06-28T14:16:18.410Z,22.49
2018-06-28T14:18:47.602Z,22.46
2018-06-28T14:21:16.736Z,23.36
2018-06-28T14:23:45.912Z,26.33
2018-06-28T14:26:15.108Z,25.00
2018-06-28T14:28:44.288Z,24.39
2018-06-28T14:31:13.500Z,24.74
2018-06-28T14:33:43.089Z,23.87
2018-06-28T14:36:12.167Z,23.26
2018-06-28T14:38:41.408Z,23.78
2018-06-28T14:41:10.903Z,24.89
2018-06-28T14:43:40.807Z,24.82
2018-06-28T14:46:10.017Z,24.74
2018-06-28T14:48:39.191Z,25.17
2018-06-28T14:51:09.023Z,26.80
2018-06-28T14:53:38.238Z,26.69
2018-06-28T14:56:07.436Z,27.84
2018-06-28T14:58:36.662Z,25.93
2018-06-28T15:01:06.076Z,27.03
2018-06-28T15:03:35.619Z,25.34
2018-06-28T15:06:04.935Z,25.67
2018-06-28T15:08:34.171Z,24.84
2018-06-28T15:11:03.563Z,25.65
2018-06-28T15:13:32.781Z,26.13
2018-06-28T15:16:01.955Z,25.01
2018-06-28T15:18:31.142Z,27.10
2018-06-28T15:21:00.314Z,26.11
2018-06-28T15:23:29.499Z,25.84
2018-06-28T15:25:58.682Z,26.58
2018-06-28T15:28:28.452Z,27.46
2018-06-28T15:30:57.631Z,27.54
2018-06-28T15:33:26.814Z,27.27
2018-06-28T15:35:56.011Z,28.84
2018-06-28T15:38:25.222Z,29.59
2018-06-28T15:40:54.518Z,28.14
2018-06-28T15:43:23.723Z,28.05
2018-06-28T15:45:52.938Z,30.55
2018-06-28T15:48:22.131Z,30.56
2018-06-28T15:50:51.339Z,30.85
2018-06-28T15:53:20.607Z,30.02
2018-06-28T15:55:50.599Z,29.16
2018-06-28T15:58:19.802Z,29.76
2018-06-28T16:00:50.079Z,29.29
2018-06-28T16:03:19.687Z,29.20
2018-06-28T16:05:50.012Z,29.20
2018-06-28T16:08:19.171Z,28.34
2018-06-28T16:10:48.659Z,29.12
2018-06-28T16:13:17.823Z,28.92
2018-06-28T16:15:47.235Z,29.95
2018-06-28T16:18:16.419Z,30.62
2018-06-28T16:20:45.638Z,28.66
2018-06-28T16:23:15.643Z,28.74
2018-06-28T16:25:44.828Z,29.07
2018-06-28T16:28:14.183Z,28.59
2018-06-28T16:30:43.499Z,28.44
2018-06-28T16:33:12.690Z,28.81
2018-06-28T16:35:42.163Z,29.14
2018-06-28T16:38:11.344Z,28.03
2018-06-28T16:40:40.648Z,29.87
2018-06-28T16:43:10.028Z,28.98
2018-06-28T16:45:39.267Z,29.71
2018-06-28T16:48:08.464Z,27.55
2018-06-28T16:50:37.706Z,29.20
2018-06-28T16:53:07.221Z,28.15
2018-06-28T16:55:36.427Z,28.29
2018-06-28T16:58:05.938Z,30.23
2018-06-28T17:00:35.182Z,29.12
2018-06-28T17:03:04.535Z,29.47
2018-06-28T17:05:33.744Z,29.69
2018-06-28T17:08:03.231Z,29.51
2018-06-28T17:10:32.755Z,29.96
2018-06-28T17:13:02.207Z,30.33
2018-06-28T17:15:32.096Z,31.01
2018-06-28T17:18:01.299Z,31.64
2018-06-28T17:20:30.502Z,33.45
2018-06-28T17:22:59.975Z,32.95
2018-06-28T17:25:29.188Z,32.85
2018-06-28T17:27:58.786Z,32.81
2018-06-28T17:30:28.208Z,32.31
2018-06-28T17:32:57.474Z,33.43
2018-06-28T17:35:26.714Z,33.54
2018-06-28T17:37:56.139Z,34.56
2018-06-28T17:40:25.321Z,36.44
2018-06-28T17:42:54.588Z,34.99
2018-06-28T17:45:23.743Z,35.01
2018-06-28T17:47:53.615Z,36.53
2018-06-28T17:50:22.837Z,36.40
2018-06-28T17:52:52.216Z,36.86
2018-06-28T17:55:21.403Z,36.31
2018-06-28T17:57:50.862Z,35.80
2018-06-28T18:00:20.056Z,36.04
2018-06-28T18:02:49.255Z,35.30
2018-06-28T18:05:18.443Z,36.24
2018-06-28T18:07:47.665Z,37.39
2018-06-28T18:10:17.663Z,37.39
2018-06-28T18:12:47.007Z,37.83
2018-06-28T18:15:16.304Z,37.11
2018-06-28T18:17:45.454Z,37.80
2018-06-28T18:20:14.651Z,38.87
2018-06-28T18:22:43.855Z,37.76
2018-06-28T18:25:13.023Z,39.44
2018-06-28T18:27:42.251Z,38.32
2018-06-28T18:30:11.444Z,39.20
2018-06-28T18:32:40.747Z,38.90
2018-06-28T18:35:10.039Z,39.18
2018-06-28T18:37:39.218Z,39.35
2018-06-28T18:40:08.444Z,39.71
2018-06-28T18:42:37.935Z,40.35
2018-06-28T18:45:07.630Z,39.99
2018-06-28T18:47:36.819Z,41.06
2018-06-28T18:50:06.440Z,40.58
2018-06-28T18:52:35.611Z,40.86
2018-06-28T18:55:04.855Z,40.21
2018-06-28T18:57:34.269Z,40.11
2018-06-28T19:00:03.847Z,41.06
2018-06-28T19:02:33.743Z,41.20
2018-06-28T19:05:02.963Z,40.80
2018-06-28T19:07:32.163Z,41.38
2018-06-28T19:10:06.589Z,42.09
2018-06-28T19:12:35.900Z,41.51
2018-06-28T19:15:10.725Z,42.91
2018-06-28T19:17:39.892Z,42.79
2018-06-28T19:20:09.166Z,43.10
2018-06-28T19:22:43.647Z,43.54
2018-06-28T19:25:13.172Z,43.47
2018-06-28T19:27:42.501Z,44.31
2018-06-28T19:30:16.903Z,44.21
2018-06-28T19:32:46.298Z,44.02
2018-06-28T19:35:15.495Z,44.08
2018-06-28T19:37:50.572Z,43.82
2018-06-28T19:40:25.041Z,43.22
2018-06-28T19:42:57.007Z,43.90
2018-06-28T19:45:26.187Z,46.24
2018-06-28T19:47:55.419Z,44.05
2018-06-28T19:50:29.861Z,44.99
2018-06-28T19:53:01.760Z,44.87
2018-06-28T19:55:30.971Z,45.31
2018-06-28T19:58:00.342Z,44.29
2018-06-28T20:00:34.615Z,44.56
2018-06-28T20:03:09.140Z,44.69
2018-06-28T20:05:38.754Z,45.41
2018-06-28T20:08:07.928Z,44.35
2018-06-28T20:10:37.523Z,45.27
2018-06-28T20:13:12.044Z,44.68
2018-06-28T20:15:54.872Z,45.35
2018-06-28T20:18:29.251Z,45.41
2018-06-28T20:20:59.760Z,45.79
2018-06-28T20:23:28.979Z,45.66
2018-06-28T20:25:58.384Z,45.22
2018-06-28T20:28:32.779Z,44.59
2018-06-28T20:31:07.179Z,45.34
2018-06-28T20:33:41.948Z,46.13
2018-06-28T20:36:11.372Z,46.62
2018-06-28T20:38:40.545Z,46.69
2018-06-28T20:41:09.743Z,47.19
2018-06-28T20:43:38.915Z,46.27
2018-06-28T20:46:08.452Z,47.77
2018-06-28T20:48:37.651Z,48.34
2018-06-28T20:51:06.934Z,49.52
2018-06-28T20:53:36.091Z,48.17
2018-06-28T20:56:05.599Z,48.92
2018-06-28T20:58:36.519Z,49.57
2018-06-28T21:01:06.895Z,50.62
2018-06-28T21:03:36.119Z,50.29
2018-06-28T21:06:05.391Z,50.44
2018-06-28T21:08:34.551Z,50.94
2018-06-28T21:11:03.786Z,50.06
2018-06-28T21:13:33.679Z,50.14
2018-06-28T21:16:03.112Z,50.68
2018-06-28T21:18:32.294Z,51.55
2018-06-28T21:21:01.455Z,51.55
2018-06-28T21:23:30.679Z,52.24
2018-06-28T21:25:59.892Z,51.80
2018-06-28T21:28:29.064Z,51.43
2018-06-28T21:30:58.472Z,51.65
2018-06-28T21:33:27.675Z,51.23
2018-06-28T21:35:56.874Z,49.90
2018-06-28T21:38:26.091Z,49.94
2018-06-28T21:40:55.280Z,50.54
2018-06-28T21:43:24.610Z,50.12
2018-06-28T21:45:53.929Z,50.52
2018-06-28T21:48:23.193Z,48.93
2018-06-28T21:50:52.315Z,50.06
2018-06-28T21:53:21.541Z,49.63
2018-06-28T21:55:50.690Z,48.49
2018-06-28T21:58:20.099Z,49.34
2018-06-28T22:00:49.324Z,49.68
2018-06-28T22:03:18.617Z,48.21
2018-06-28T22:05:47.811Z,48.68
2018-06-28T22:08:17.020Z,49.52
2018-06-28T22:10:46.196Z,49.06
2018-06-28T22:13:15.399Z,49.07
2018-06-28T22:15:44.563Z,49.40
2018-06-28T22:18:13.887Z,48.60
2018-06-28T22:20:43.678Z,48.51
2018-06-28T22:23:12.879Z,49.52
2018-06-28T22:25:42.087Z,49.60
2018-06-28T22:28:11.276Z,49.40
2018-06-28T22:30:40.459Z,50.70
2018-06-28T22:33:10.428Z,50.89
2018-06-28T22:35:39.691Z,51.42
2018-06-28T22:38:09.071Z,50.57
2018-06-28T22:40:38.271Z,49.75
2018-06-28T22:43:07.660Z,49.18
2018-06-28T22:45:36.875Z,48.88
2018-06-28T22:48:06.259Z,49.79
2018-06-28T22:50:35.454Z,48.71
2018-06-28T22:53:04.733Z,50.04
2018-06-28T22:55:34.114Z,50.20
2018-06-28T22:58:03.615Z,50.41
2018-06-28T23:00:32.899Z,49.13
2018-06-28T23:03:02.119Z,50.96
2018-06-28T23:05:31.308Z,49.77
2018-06-28T23:08:00.623Z,49.83
2018-06-28T23:10:29.826Z,48.85
2018-06-28T23:12:59.642Z,50.14
2018-06-28T23:15:28.848Z,49.88
2018-06-28T23:17:58.187Z,49.80
2018-06-28T23:20:27.383Z,50.40
2018-06-28T23:22:56.578Z,50.85
2018-06-28T23:25:25.867Z,51.27
2018-06-28T23:27:55.040Z,51.47
2018-06-28T23:30:24.673Z,50.57
2018-06-28T23:32:53.863Z,50.67
2018-06-28T23:35:23.147Z,50.56
2018-06-28T23:37:52.500Z,51.12
2018-06-28T23:40:21.679Z,50.86
2018-06-28T23:42:51.132Z,52.58
2018-06-28T23:45:20.316Z,51.75
2018-06-28T23:47:49.592Z,52.42
2018-06-28T23:50:18.703Z,53.41
2018-06-28T23:52:48.243Z,54.48
2018-06-28T23:55:17.691Z,55.33
2018-06-28T23:57:46.899Z,55.84
